sensor_id;sensor_type;location;lat;lon;timestamp;pressure;altitude;pressure_sealevel;temperature;humidity
49945;BME280;35838;49.134;9.212;2023-07-31T00:01:12;99860.81;;;19.13;100.00
49945;BME280;35838;49.134;9.212;2023-07-31T00:02:46;99861.69;;;19.14;100.00
49945;BME280;35838;49.134;9.212;2023-07-31T00:04:17;99860.22;;;19.06;100.00
49945;BME280;35838;49.134;9.212;2023-07-31T00:05:50;99851.97;;;18.93;100.00
49945;BME280;35838;49.134;9.212;2023-07-31T00:07:24;99862.13;;;19.03;100.00
49945;BME280;35838;49.134;9.212;2023-07-31T00:08:57;99858.38;;;19.08;100.00
49945;BME280;35838;49.134;9.212;2023-07-31T00:10:31;99852.63;;;18.99;100.00
49945;BME280;35838;49.134;9.212;2023-07-31T00:12:02;99844.47;;;19.05;100.00
49945;BME280;35838;49.134;9.212;2023-07-31T00:13:36;99853.25;;;19.05;100.00
49945;BME280;35838;49.134;9.212;2023-07-31T00:15:10;99855.13;;;18.78;100.00
49945;BME280;35838;49.134;9.212;2023-07-31T00:16:43;99848.69;;;18.87;100.00
49945;BME280;35838;49.134;9.212;2023-07-31T00:18:14;99851.56;;;18.81;100.00
49945;BME280;35838;49.134;9.212;2023-07-31T00:19:48;99852.22;;;18.86;100.00
49945;BME280;35838;49.134;9.212;2023-07-31T00:21:21;99842.56;;;18.86;100.00
49945;BME280;35838;49.134;9.212;2023-07-31T00:22:57;99840.56;;;18.93;100.00
49945;BME280;35838;49.134;9.212;2023-07-31T00:24:28;99841.38;;;18.95;100.00
49945;BME280;35838;49.134;9.212;2023-07-31T00:26:02;99850.06;;;18.97;100.00
49945;BME280;35838;49.134;9.212;2023-07-31T00:27:33;99838.56;;;19.00;100.00
49945;BME280;35838;49.134;9.212;2023-07-31T00:29:06;99839.28;;;19.03;100.00
49945;BME280;35838;49.134;9.212;2023-07-31T00:30:40;99842.00;;;19.02;100.00
49945;BME280;35838;49.134;9.212;2023-07-31T00:32:11;99842.91;;;19.01;100.00
49945;BME280;35838;49.134;9.212;2023-07-31T00:33:44;99838.69;;;18.97;100.00
49945;BME280;35838;49.134;9.212;2023-07-31T00:35:15;99840.38;;;18.98;100.00
49945;BME280;35838;49.134;9.212;2023-07-31T00:36:49;99845.94;;;18.90;100.00
49945;BME280;35838;49.134;9.212;2023-07-31T00:38:23;99842.56;;;18.86;100.00
49945;BME280;35838;49.134;9.212;2023-07-31T00:39:56;99842.69;;;18.83;100.00
49945;BME280;35838;49.134;9.212;2023-07-31T00:41:27;99840.00;;;18.85;100.00
49945;BME280;35838;49.134;9.212;2023-07-31T00:43:01;99842.06;;;18.76;100.00
49945;BME280;35838;49.134;9.212;2023-07-31T00:44:32;99831.91;;;18.89;100.00
49945;BME280;35838;49.134;9.212;2023-07-31T00:46:05;99834.63;;;18.88;100.00
49945;BME280;35838;49.134;9.212;2023-07-31T00:47:37;99834.69;;;18.64;100.00
49945;BME280;35838;49.134;9.212;2023-07-31T00:49:11;99837.72;;;18.75;100.00
49945;BME280;35838;49.134;9.212;2023-07-31T00:50:42;99835.97;;;18.76;100.00
49945;BME280;35838;49.134;9.212;2023-07-31T00:52:16;99834.59;;;18.66;100.00
49945;BME280;35838;49.134;9.212;2023-07-31T00:53:52;99835.44;;;18.66;100.00
49945;BME280;35838;49.134;9.212;2023-07-31T00:55:24;99835.34;;;18.69;100.00
49945;BME280;35838;49.134;9.212;2023-07-31T00:56:58;99835.44;;;18.66;100.00
49945;BME280;35838;49.134;9.212;2023-07-31T00:58:30;99832.72;;;18.69;100.00
49945;BME280;35838;49.134;9.212;2023-07-31T01:00:04;99831.97;;;18.66;100.00
49945;BME280;35838;49.134;9.212;2023-07-31T01:01:38;99824.94;;;18.66;100.00
49945;BME280;35838;49.134;9.212;2023-07-31T01:03:12;99823.22;;;18.65;100.00
49945;BME280;35838;49.134;9.212;2023-07-31T01:04:43;99830.16;;;18.68;100.00
49945;BME280;35838;49.134;9.212;2023-07-31T01:06:19;99837.16;;;18.67;100.00
49945;BME280;35838;49.134;9.212;2023-07-31T01:07:56;99825.84;;;18.65;100.00
49945;BME280;35838;49.134;9.212;2023-07-31T01:09:40;99831.91;;;18.67;100.00
49945;BME280;35838;49.134;9.212;2023-07-31T01:11:13;99825.84;;;18.65;100.00
49945;BME280;35838;49.134;9.212;2023-07-31T01:12:48;99827.69;;;18.63;100.00
49945;BME280;35838;49.134;9.212;2023-07-31T01:14:20;99834.50;;;18.69;100.00
49945;BME280;35838;49.134;9.212;2023-07-31T01:15:54;99823.41;;;18.60;100.00
49945;BME280;35838;49.134;9.212;2023-07-31T01:17:25;99824.94;;;18.66;100.00
49945;BME280;35838;49.134;9.212;2023-07-31T01:18:59;99819.94;;;18.60;100.00
49945;BME280;35838;49.134;9.212;2023-07-31T01:20:30;99813.75;;;18.61;100.00
49945;BME280;35838;49.134;9.212;2023-07-31T01:24:02;99810.25;;;18.60;100.00
49945;BME280;35838;49.134;9.212;2023-07-31T01:25:50;99807.69;;;18.59;100.00
49945;BME280;35838;49.134;9.212;2023-07-31T01:27:23;99807.94;;;18.53;100.00
49945;BME280;35838;49.134;9.212;2023-07-31T01:29:00;99813.44;;;18.46;100.00
49945;BME280;35838;49.134;9.212;2023-07-31T01:30:32;99808.94;;;18.50;100.00
49945;BME280;35838;49.134;9.212;2023-07-31T01:32:07;99802.97;;;18.45;100.00
49945;BME280;35838;49.134;9.212;2023-07-31T01:33:40;99807.41;;;18.43;100.00
49945;BME280;35838;49.134;9.212;2023-07-31T01:35:14;99801.16;;;18.47;100.00
49945;BME280;35838;49.134;9.212;2023-07-31T01:36:45;99799.34;;;18.47;100.00
49945;BME280;35838;49.134;9.212;2023-07-31T01:38:20;99792.28;;;18.50;100.00
49945;BME280;35838;49.134;9.212;2023-07-31T01:39:51;99794.97;;;18.48;100.00
49945;BME280;35838;49.134;9.212;2023-07-31T01:41:28;99791.47;;;18.47;100.00
49945;BME280;35838;49.134;9.212;2023-07-31T01:42:59;99788.13;;;18.44;100.00
49945;BME280;35838;49.134;9.212;2023-07-31T01:44:32;99791.72;;;18.41;100.00
49945;BME280;35838;49.134;9.212;2023-07-31T01:46:03;99787.53;;;18.37;100.00
49945;BME280;35838;49.134;9.212;2023-07-31T01:47:37;99785.81;;;18.36;100.00
49945;BME280;35838;49.134;9.212;2023-07-31T01:49:08;99784.19;;;18.32;100.00
49945;BME280;35838;49.134;9.212;2023-07-31T01:50:41;99789.88;;;18.21;100.00
49945;BME280;35838;49.134;9.212;2023-07-31T01:52:12;99782.66;;;18.26;100.00
49945;BME280;35838;49.134;9.212;2023-07-31T01:53:46;99795.91;;;18.23;100.00
49945;BME280;35838;49.134;9.212;2023-07-31T01:55:17;99793.91;;;18.30;100.00
49945;BME280;35838;49.134;9.212;2023-07-31T01:56:53;99786.25;;;18.24;100.00
49945;BME280;35838;49.134;9.212;2023-07-31T01:58:24;99788.94;;;18.22;100.00
49945;BME280;35838;49.134;9.212;2023-07-31T01:59:58;99789.69;;;18.26;100.00
49945;BME280;35838;49.134;9.212;2023-07-31T02:01:29;99787.63;;;18.34;100.00
49945;BME280;35838;49.134;9.212;2023-07-31T02:03:02;99777.13;;;18.34;100.00
49945;BME280;35838;49.134;9.212;2023-07-31T02:04:33;99776.84;;;18.18;100.00
49945;BME280;35838;49.134;9.212;2023-07-31T02:06:09;99776.72;;;18.21;100.00
49945;BME280;35838;49.134;9.212;2023-07-31T02:07:40;99778.56;;;18.19;100.00
49945;BME280;35838;49.134;9.212;2023-07-31T02:09:13;99774.16;;;18.20;100.00
49945;BME280;35838;49.134;9.212;2023-07-31T02:10:44;99766.28;;;18.20;100.00
49945;BME280;35838;49.134;9.212;2023-07-31T02:12:20;99765.16;;;18.25;100.00
49945;BME280;35838;49.134;9.212;2023-07-31T02:13:51;99777.47;;;18.25;100.00
49945;BME280;35838;49.134;9.212;2023-07-31T02:15:25;99773.94;;;18.26;100.00
49945;BME280;35838;49.134;9.212;2023-07-31T02:16:56;99771.97;;;18.31;100.00
49945;BME280;35838;49.134;9.212;2023-07-31T02:18:30;99772.22;;;18.25;100.00
49945;BME280;35838;49.134;9.212;2023-07-31T02:20:01;99766.97;;;18.25;100.00
49945;BME280;35838;49.134;9.212;2023-07-31T02:21:34;99761.63;;;18.26;100.00
49945;BME280;35838;49.134;9.212;2023-07-31T02:23:05;99766.13;;;18.24;100.00
49945;BME280;35838;49.134;9.212;2023-07-31T02:24:39;99763.50;;;18.24;100.00
49945;BME280;35838;49.134;9.212;2023-07-31T02:26:10;99767.19;;;18.19;100.00
49945;BME280;35838;49.134;9.212;2023-07-31T02:27:46;99765.25;;;18.24;100.00
49945;BME280;35838;49.134;9.212;2023-07-31T02:29:17;99764.22;;;18.04;100.00
49945;BME280;35838;49.134;9.212;2023-07-31T02:30:51;99758.84;;;18.07;100.00
49945;BME280;35838;49.134;9.212;2023-07-31T02:32:22;99765.84;;;18.08;100.00
49945;BME280;35838;49.134;9.212;2023-07-31T02:33:56;99760.81;;;18.02;100.00
49945;BME280;35838;49.134;9.212;2023-07-31T02:35:27;99764.75;;;17.89;100.00
49945;BME280;35838;49.134;9.212;2023-07-31T02:37:00;99761.91;;;17.95;100.00
49945;BME280;35838;49.134;9.212;2023-07-31T02:38:31;99753.84;;;18.01;100.00
49945;BME280;35838;49.134;9.212;2023-07-31T02:40:05;99762.75;;;17.97;100.00
49945;BME280;35838;49.134;9.212;2023-07-31T02:41:36;99754.78;;;17.98;100.00
49945;BME280;35838;49.134;9.212;2023-07-31T02:43:13;99751.91;;;18.06;100.00
49945;BME280;35838;49.134;9.212;2023-07-31T02:44:44;99750.97;;;18.07;100.00
49945;BME280;35838;49.134;9.212;2023-07-31T02:46:17;99750.81;;;18.12;100.00
49945;BME280;35838;49.134;9.212;2023-07-31T02:47:48;99748.69;;;18.22;100.00
49945;BME280;35838;49.134;9.212;2023-07-31T02:49:22;99750.63;;;18.16;100.00
49945;BME280;35838;49.134;9.212;2023-07-31T02:50:55;99748.13;;;18.13;100.00
49945;BME280;35838;49.134;9.212;2023-07-31T02:52:26;99744.59;;;18.14;100.00
49945;BME280;35838;49.134;9.212;2023-07-31T02:54:00;99748.25;;;18.10;100.00
49945;BME280;35838;49.134;9.212;2023-07-31T02:55:32;99748.91;;;18.15;100.00
49945;BME280;35838;49.134;9.212;2023-07-31T02:57:06;99762.41;;;18.06;100.00
49945;BME280;35838;49.134;9.212;2023-07-31T02:58:39;99754.41;;;18.09;100.00
49945;BME280;35838;49.134;9.212;2023-07-31T03:00:13;99750.97;;;18.07;100.00
49945;BME280;35838;49.134;9.212;2023-07-31T03:01:44;99749.19;;;18.08;100.00
49945;BME280;35838;49.134;9.212;2023-07-31T03:03:17;99751.78;;;18.09;100.00
49945;BME280;35838;49.134;9.212;2023-07-31T03:04:48;99757.22;;;18.05;100.00
49945;BME280;35838;49.134;9.212;2023-07-31T03:06:22;99757.22;;;18.05;100.00
49945;BME280;35838;49.134;9.212;2023-07-31T03:07:53;99758.28;;;17.99;100.00
49945;BME280;35838;49.134;9.212;2023-07-31T03:09:27;99750.31;;;18.02;100.00
49945;BME280;35838;49.134;9.212;2023-07-31T03:10:58;99755.97;;;17.90;100.00
49945;BME280;35838;49.134;9.212;2023-07-31T03:12:31;99763.03;;;17.88;100.00
49945;BME280;35838;49.134;9.212;2023-07-31T03:14:05;99756.88;;;17.89;100.00
49945;BME280;35838;49.134;9.212;2023-07-31T03:15:41;99757.53;;;17.70;100.00
49945;BME280;35838;49.134;9.212;2023-07-31T03:17:12;99763.38;;;17.78;100.00
49945;BME280;35838;49.134;9.212;2023-07-31T03:18:46;99764.78;;;17.63;100.00
49945;BME280;35838;49.134;9.212;2023-07-31T03:20:17;99758.34;;;17.72;100.00
49945;BME280;35838;49.134;9.212;2023-07-31T03:21:50;99755.50;;;17.78;100.00
49945;BME280;35838;49.134;9.212;2023-07-31T03:23:21;99754.50;;;17.82;100.00
49945;BME280;35838;49.134;9.212;2023-07-31T03:24:56;99750.09;;;17.83;100.00
49945;BME280;35838;49.134;9.212;2023-07-31T03:26:30;99750.78;;;17.88;100.00
49945;BME280;35838;49.134;9.212;2023-07-31T03:28:01;99757.78;;;17.88;100.00
49945;BME280;35838;49.134;9.212;2023-07-31T03:29:38;99747.28;;;17.88;100.00
49945;BME280;35838;49.134;9.212;2023-07-31T03:31:09;99746.28;;;17.92;100.00
49945;BME280;35838;49.134;9.212;2023-07-31T03:32:43;99751.69;;;17.87;100.00
49945;BME280;35838;49.134;9.212;2023-07-31T03:34:14;99748.19;;;17.86;100.00
49945;BME280;35838;49.134;9.212;2023-07-31T03:35:47;99750.03;;;17.84;100.00
49945;BME280;35838;49.134;9.212;2023-07-31T03:37:18;99747.28;;;17.88;100.00
49945;BME280;35838;49.134;9.212;2023-07-31T03:38:52;99754.44;;;17.84;100.00
49945;BME280;35838;49.134;9.212;2023-07-31T03:40:23;99750.63;;;17.93;100.00
49945;BME280;35838;49.134;9.212;2023-07-31T03:41:57;99763.03;;;17.88;100.00
49945;BME280;35838;49.134;9.212;2023-07-31T03:43:28;99756.53;;;17.74;100.00
49945;BME280;35838;49.134;9.212;2023-07-31T03:45:04;99760.06;;;17.73;100.00
49945;BME280;35838;49.134;9.212;2023-07-31T03:46:38;99760.63;;;17.58;100.00
49945;BME280;35838;49.134;9.212;2023-07-31T03:48:09;99753.44;;;17.63;100.00
49945;BME280;35838;49.134;9.212;2023-07-31T03:49:43;99762.94;;;17.67;100.00
49945;BME280;35838;49.134;9.212;2023-07-31T03:51:17;99751.66;;;17.63;100.00
49945;BME280;35838;49.134;9.212;2023-07-31T03:52:48;99751.66;;;17.63;100.00
49945;BME280;35838;49.134;9.212;2023-07-31T03:54:21;99745.47;;;17.66;100.00
49945;BME280;35838;49.134;9.212;2023-07-31T03:55:52;99745.34;;;17.69;100.00
49945;BME280;35838;49.134;9.212;2023-07-31T03:57:26;99743.34;;;17.76;100.00
49945;BME280;35838;49.134;9.212;2023-07-31T03:58:59;99743.25;;;17.79;100.00
49945;BME280;35838;49.134;9.212;2023-07-31T04:00:33;99745.16;;;17.74;100.00
49945;BME280;35838;49.134;9.212;2023-07-31T04:02:07;99745.00;;;17.78;100.00
49945;BME280;35838;49.134;9.212;2023-07-31T04:03:38;99745.06;;;17.77;100.00
49945;BME280;35838;49.134;9.212;2023-07-31T04:05:12;99748.38;;;17.82;100.00
49945;BME280;35838;49.134;9.212;2023-07-31T04:06:45;99750.97;;;17.83;100.00
49945;BME280;35838;49.134;9.212;2023-07-31T04:08:16;99744.09;;;17.79;100.00
49945;BME280;35838;49.134;9.212;2023-07-31T04:09:50;99748.16;;;17.88;100.00
49945;BME280;35838;49.134;9.212;2023-07-31T04:11:23;99743.00;;;17.85;100.00
49945;BME280;35838;49.134;9.212;2023-07-31T04:12:54;99751.72;;;17.85;100.00
49945;BME280;35838;49.134;9.212;2023-07-31T04:14:28;99751.72;;;17.85;100.00
49945;BME280;35838;49.134;9.212;2023-07-31T04:16:02;99749.06;;;17.87;100.00
49945;BME280;35838;49.134;9.212;2023-07-31T04:17:35;99743.81;;;17.87;100.00
49945;BME280;35838;49.134;9.212;2023-07-31T04:19:06;99756.03;;;17.88;100.00
49945;BME280;35838;49.134;9.212;2023-07-31T04:20:41;99755.56;;;17.77;100.00
49945;BME280;35838;49.134;9.212;2023-07-31T04:22:12;99752.66;;;17.84;100.00
49945;BME280;35838;49.134;9.212;2023-07-31T04:23:45;99761.50;;;17.82;100.00
49945;BME280;35838;49.134;9.212;2023-07-31T04:25:17;99761.56;;;17.80;100.00
49945;BME280;35838;49.134;9.212;2023-07-31T04:26:51;99763.09;;;17.86;100.00
49945;BME280;35838;49.134;9.212;2023-07-31T04:28:23;99751.63;;;17.89;100.00
49945;BME280;35838;49.134;9.212;2023-07-31T04:29:57;99753.59;;;17.83;100.00
49945;BME280;35838;49.134;9.212;2023-07-31T04:31:30;99756.06;;;17.86;100.00
49945;BME280;35838;49.134;9.212;2023-07-31T04:33:04;99752.44;;;17.91;100.00
49945;BME280;35838;49.134;9.212;2023-07-31T04:34:35;99749.00;;;17.89;100.00
49945;BME280;35838;49.134;9.212;2023-07-31T04:36:08;99752.44;;;17.91;100.00
49945;BME280;35838;49.134;9.212;2023-07-31T04:37:39;99754.16;;;17.92;100.00
49945;BME280;35838;49.134;9.212;2023-07-31T04:39:13;99750.81;;;17.86;100.00
49945;BME280;35838;49.134;9.212;2023-07-31T04:40:44;99756.06;;;17.86;100.00
49945;BME280;35838;49.134;9.212;2023-07-31T04:42:18;99750.09;;;17.83;100.00
49945;BME280;35838;49.134;9.212;2023-07-31T04:43:49;99747.28;;;17.88;100.00
49945;BME280;35838;49.134;9.212;2023-07-31T04:45:22;99745.56;;;17.86;100.00
49945;BME280;35838;49.134;9.212;2023-07-31T04:46:56;99744.63;;;17.89;100.00
49945;BME280;35838;49.134;9.212;2023-07-31T04:48:30;99743.59;;;17.93;100.00
49945;BME280;35838;49.134;9.212;2023-07-31T04:50:04;99733.69;;;18.01;100.00
49945;BME280;35838;49.134;9.212;2023-07-31T04:51:35;99735.22;;;18.07;100.00
49945;BME280;35838;49.134;9.212;2023-07-31T04:53:08;99733.44;;;18.08;100.00
49945;BME280;35838;49.134;9.212;2023-07-31T04:54:39;99746.75;;;18.03;100.00
49945;BME280;35838;49.134;9.212;2023-07-31T04:56:13;99742.28;;;18.05;100.00
49945;BME280;35838;49.134;9.212;2023-07-31T04:57:44;99740.72;;;18.01;100.00
49945;BME280;35838;49.134;9.212;2023-07-31T04:59:18;99743.09;;;18.07;100.00
49945;BME280;35838;49.134;9.212;2023-07-31T05:00:49;99736.22;;;18.05;100.00
49945;BME280;35838;49.134;9.212;2023-07-31T05:02:25;99734.41;;;18.05;100.00
49945;BME280;35838;49.134;9.212;2023-07-31T05:03:56;99731.00;;;18.03;100.00
49945;BME280;35838;49.134;9.212;2023-07-31T05:05:30;99723.91;;;18.05;100.00
49945;BME280;35838;49.134;9.212;2023-07-31T05:07:01;99727.44;;;18.04;100.00
49945;BME280;35838;49.134;9.212;2023-07-31T05:08:34;99720.72;;;17.97;100.00
49945;BME280;35838;49.134;9.212;2023-07-31T05:10:06;99724.16;;;17.99;100.00
49945;BME280;35838;49.134;9.212;2023-07-31T05:11:39;99717.88;;;18.03;100.00
49945;BME280;35838;49.134;9.212;2023-07-31T05:13:11;99718.81;;;18.02;100.00
49945;BME280;35838;49.134;9.212;2023-07-31T05:14:44;99723.81;;;18.08;100.00
49945;BME280;35838;49.134;9.212;2023-07-31T05:16:15;99726.34;;;18.11;100.00
49945;BME280;35838;49.134;9.212;2023-07-31T05:17:52;99727.91;;;18.15;100.00
49945;BME280;35838;49.134;9.212;2023-07-31T05:19:23;99723.63;;;18.13;100.00
49945;BME280;35838;49.134;9.212;2023-07-31T05:20:56;99724.44;;;18.15;100.00
49945;BME280;35838;49.134;9.212;2023-07-31T05:22:27;99716.84;;;18.07;100.00
49945;BME280;35838;49.134;9.212;2023-07-31T05:24:01;99708.06;;;18.08;100.00
49945;BME280;35838;49.134;9.212;2023-07-31T05:25:32;99719.06;;;18.18;100.00
49945;BME280;35838;49.134;9.212;2023-07-31T05:27:06;99725.28;;;18.15;100.00
49945;BME280;35838;49.134;9.212;2023-07-31T05:28:37;99718.06;;;18.21;100.00
49945;BME280;35838;49.134;9.212;2023-07-31T05:30:11;99723.16;;;18.25;100.00
49945;BME280;35838;49.134;9.212;2023-07-31T05:31:42;99718.69;;;18.27;100.00
49945;BME280;35838;49.134;9.212;2023-07-31T05:33:18;99718.69;;;18.27;100.00
49945;BME280;35838;49.134;9.212;2023-07-31T05:34:52;99716.06;;;18.27;100.00
49945;BME280;35838;49.134;9.212;2023-07-31T05:36:23;99717.72;;;18.30;100.00
49945;BME280;35838;49.134;9.212;2023-07-31T05:37:57;99722.06;;;18.31;100.00
49945;BME280;35838;49.134;9.212;2023-07-31T05:39:30;99721.41;;;18.26;100.00
49945;BME280;35838;49.134;9.212;2023-07-31T05:41:04;99717.59;;;18.33;100.00
49945;BME280;35838;49.134;9.212;2023-07-31T05:42:35;99717.72;;;18.30;100.00
49945;BME280;35838;49.134;9.212;2023-07-31T05:44:09;99726.41;;;18.32;100.00
49945;BME280;35838;49.134;9.212;2023-07-31T05:45:40;99728.38;;;18.27;100.00
49945;BME280;35838;49.134;9.212;2023-07-31T05:47:13;99720.88;;;18.16;100.00
49945;BME280;35838;49.134;9.212;2023-07-31T05:48:47;99725.94;;;18.21;100.00
49945;BME280;35838;49.134;9.212;2023-07-31T05:50:21;99726.03;;;18.19;100.00
49945;BME280;35838;49.134;9.212;2023-07-31T05:51:52;99725.22;;;18.17;100.00
49945;BME280;35838;49.134;9.212;2023-07-31T05:53:25;99721.41;;;18.26;100.00
49945;BME280;35838;49.134;9.212;2023-07-31T05:54:56;99732.00;;;18.23;100.00
49945;BME280;35838;49.134;9.212;2023-07-31T05:56:30;99719.78;;;18.22;100.00
49945;BME280;35838;49.134;9.212;2023-07-31T05:58:02;99713.19;;;18.33;100.00
49945;BME280;35838;49.134;9.212;2023-07-31T05:59:35;99720.06;;;18.38;100.00
49945;BME280;35838;49.134;9.212;2023-07-31T06:01:06;99720.22;;;18.33;100.00
49945;BME280;35838;49.134;9.212;2023-07-31T06:02:40;99724.69;;;18.31;100.00
49945;BME280;35838;49.134;9.212;2023-07-31T06:04:13;99728.22;;;18.30;100.00
49945;BME280;35838;49.134;9.212;2023-07-31T06:05:47;99726.84;;;18.43;100.00
49945;BME280;35838;49.134;9.212;2023-07-31T06:07:18;99722.88;;;18.33;100.00
49945;BME280;35838;49.134;9.212;2023-07-31T06:08:52;99709.53;;;18.38;100.00
49945;BME280;35838;49.134;9.212;2023-07-31T06:10:23;99716.63;;;18.36;100.00
49945;BME280;35838;49.134;9.212;2023-07-31T06:11:56;99723.53;;;18.38;100.00
49945;BME280;35838;49.134;9.212;2023-07-31T06:13:28;99730.84;;;18.30;100.00
49945;BME280;35838;49.134;9.212;2023-07-31T06:15:02;99720.16;;;18.35;100.00
49945;BME280;35838;49.134;9.212;2023-07-31T06:16:33;99726.66;;;18.48;100.00
49945;BME280;35838;49.134;9.212;2023-07-31T06:18:07;99728.91;;;18.35;100.00
49945;BME280;35838;49.134;9.212;2023-07-31T06:19:40;99728.84;;;18.37;100.00
49945;BME280;35838;49.134;9.212;2023-07-31T06:21:14;99724.09;;;18.46;100.00
49945;BME280;35838;49.134;9.212;2023-07-31T06:22:45;99721.78;;;18.39;100.00
49945;BME280;35838;49.134;9.212;2023-07-31T06:24:19;99717.13;;;18.45;100.00
49945;BME280;35838;49.134;9.212;2023-07-31T06:25:51;99725.69;;;18.51;100.00
49945;BME280;35838;49.134;9.212;2023-07-31T06:27:25;99720.97;;;18.59;100.00
49945;BME280;35838;49.134;9.212;2023-07-31T06:28:56;99733.63;;;18.71;100.00
49945;BME280;35838;49.134;9.212;2023-07-31T06:30:29;99726.28;;;18.79;100.00
49945;BME280;35838;49.134;9.212;2023-07-31T06:32:00;99724.69;;;18.98;100.00
49945;BME280;35838;49.134;9.212;2023-07-31T06:33:34;99724.19;;;19.10;100.00
49945;BME280;35838;49.134;9.212;2023-07-31T06:35:08;99715.81;;;19.21;100.00
49945;BME280;35838;49.134;9.212;2023-07-31T06:36:41;99715.25;;;18.92;100.00
49945;BME280;35838;49.134;9.212;2023-07-31T06:38:12;99714.50;;;18.88;100.00
49945;BME280;35838;49.134;9.212;2023-07-31T06:39:46;99713.31;;;18.97;100.00
49945;BME280;35838;49.134;9.212;2023-07-31T06:41:17;99717.03;;;18.91;100.00
49945;BME280;35838;49.134;9.212;2023-07-31T06:42:50;99708.06;;;18.97;100.00
49945;BME280;35838;49.134;9.212;2023-07-31T06:44:21;99708.44;;;19.08;100.00
49945;BME280;35838;49.134;9.212;2023-07-31T06:45:55;99714.50;;;19.10;100.00
49945;BME280;35838;49.134;9.212;2023-07-31T06:47:26;99716.09;;;19.15;100.00
49945;BME280;35838;49.134;9.212;2023-07-31T06:49:00;99714.88;;;19.01;100.00
49945;BME280;35838;49.134;9.212;2023-07-31T06:50:33;99700.44;;;19.12;100.00
49945;BME280;35838;49.134;9.212;2023-07-31T06:52:07;99705.41;;;19.18;100.00
49945;BME280;35838;49.134;9.212;2023-07-31T06:53:38;99702.66;;;19.00;100.00
49945;BME280;35838;49.134;9.212;2023-07-31T06:55:16;99704.13;;;19.07;100.00
49945;BME280;35838;49.134;9.212;2023-07-31T06:56:48;99704.47;;;19.20;100.00
49945;BME280;35838;49.134;9.212;2023-07-31T06:58:21;99699.25;;;19.39;100.00
49945;BME280;35838;49.134;9.212;2023-07-31T06:59:53;99698.75;;;19.50;100.00
49945;BME280;35838;49.134;9.212;2023-07-31T07:01:26;99699.72;;;19.29;100.00
49945;BME280;35838;49.134;9.212;2023-07-31T07:02:58;99693.69;;;19.46;100.00
49945;BME280;35838;49.134;9.212;2023-07-31T07:04:31;99686.53;;;19.49;100.00
49945;BME280;35838;49.134;9.212;2023-07-31T07:06:05;99700.84;;;19.44;100.00
49945;BME280;35838;49.134;9.212;2023-07-31T07:07:40;99697.13;;;19.48;100.00
49945;BME280;35838;49.134;9.212;2023-07-31T07:09:11;99692.97;;;19.42;100.00
49945;BME280;35838;49.134;9.212;2023-07-31T07:10:45;99696.88;;;19.33;100.00
49945;BME280;35838;49.134;9.212;2023-07-31T07:12:18;99699.84;;;19.46;100.00
49945;BME280;35838;49.134;9.212;2023-07-31T07:13:49;99691.22;;;19.42;100.00
49945;BME280;35838;49.134;9.212;2023-07-31T07:15:23;99691.78;;;19.49;100.00
49945;BME280;35838;49.134;9.212;2023-07-31T07:16:57;99695.31;;;19.29;100.00
49945;BME280;35838;49.134;9.212;2023-07-31T07:18:28;99683.47;;;19.39;100.00
49945;BME280;35838;49.134;9.212;2023-07-31T07:20:01;99695.28;;;19.50;100.00
49945;BME280;35838;49.134;9.212;2023-07-31T07:21:36;99699.47;;;19.54;100.00
49945;BME280;35838;49.134;9.212;2023-07-31T07:23:10;99698.03;;;19.47;100.00
49945;BME280;35838;49.134;9.212;2023-07-31T07:24:41;99698.72;;;19.52;100.00
49945;BME280;35838;49.134;9.212;2023-07-31T07:26:15;99693.19;;;19.37;100.00
49945;BME280;35838;49.134;9.212;2023-07-31T07:27:45;99701.25;;;19.34;100.00
49945;BME280;35838;49.134;9.212;2023-07-31T07:29:19;99696.38;;;19.25;100.00
49945;BME280;35838;49.134;9.212;2023-07-31T07:30:51;99701.28;;;19.33;100.00
49945;BME280;35838;49.134;9.212;2023-07-31T07:32:25;99700.69;;;19.47;100.00
49945;BME280;35838;49.134;9.212;2023-07-31T07:33:56;99686.47;;;19.51;100.00
49945;BME280;35838;49.134;9.212;2023-07-31T07:35:30;99684.16;;;19.64;100.00
49945;BME280;35838;49.134;9.212;2023-07-31T07:37:03;99681.81;;;19.77;100.00
49945;BME280;35838;49.134;9.212;2023-07-31T07:38:37;99673.94;;;19.56;100.00
49945;BME280;35838;49.134;9.212;2023-07-31T07:40:12;99675.38;;;19.63;100.00
49945;BME280;35838;49.134;9.212;2023-07-31T07:41:43;99676.09;;;19.67;100.00
49945;BME280;35838;49.134;9.212;2023-07-31T07:43:16;99677.53;;;19.74;100.00
49945;BME280;35838;49.134;9.212;2023-07-31T07:44:47;99684.22;;;19.81;100.00
49945;BME280;35838;49.134;9.212;2023-07-31T07:46:21;99689.59;;;19.99;100.00
49945;BME280;35838;49.134;9.212;2023-07-31T07:47:52;99685.97;;;20.01;100.00
49945;BME280;35838;49.134;9.212;2023-07-31T07:49:26;99680.22;;;19.72;100.00
49945;BME280;35838;49.134;9.212;2023-07-31T07:50:57;99685.59;;;19.90;100.00
49945;BME280;35838;49.134;9.212;2023-07-31T07:52:33;99692.34;;;19.77;100.00
49945;BME280;35838;49.134;9.212;2023-07-31T07:54:04;99673.81;;;19.78;100.00
49945;BME280;35838;49.134;9.212;2023-07-31T07:55:38;99680.09;;;19.76;100.00
49945;BME280;35838;49.134;9.212;2023-07-31T07:57:09;99677.88;;;19.87;100.00
49945;BME280;35838;49.134;9.212;2023-07-31T07:58:42;99683.13;;;20.06;100.00
49945;BME280;35838;49.134;9.212;2023-07-31T08:00:14;99685.53;;;20.11;100.00
49945;BME280;35838;49.134;9.212;2023-07-31T08:01:47;99675.28;;;19.85;100.00
49945;BME280;35838;49.134;9.212;2023-07-31T08:03:18;99676.47;;;19.97;100.00
49945;BME280;35838;49.134;9.212;2023-07-31T08:04:52;99681.97;;;20.12;100.00
49945;BME280;35838;49.134;9.212;2023-07-31T08:06:23;99669.44;;;20.17;100.00
49945;BME280;35838;49.134;9.212;2023-07-31T08:08:00;99676.97;;;20.25;100.00